Orrington, ME (04474)

12:10 AM EST on February 12, 2016 (GMT -0500)
Hampden River Valley | | Change Station
CLOSE
Current Station
Personal Weather Station
Location: Hampden, ME
Elevation: 118 ft
Nearby Weather Stations
Active Advisory: Winter Storm Watch Active Notice: Local Storm Report

Elev 118 ft 44.72 °N, 68.84 °W | Updated 17 seconds ago

Clear
Clear
5.7 °F
Feels Like 6 °F
N
1.6
Wind Variable Wind from WSW
Gusts 3.6 mph

Today
High -- | Low -- °F
--% Chance of Precip.
Yesterday
High -- | Low -- °F
Precip. -- in
Pressure 29.87 in
Visibility 10.0 miles
Clouds Clear
Windchill 6 °F
Dew Point -14 °F
Humidity 38%
Rainfall 0.00 in
Snow Depth Not available.
6:40 AM 4:58 PM
Waxing Crescent, 17% visible
METAR KBGR 120453Z 31012G18KT 10SM CLR M14/M22 A2986 RMK AO2 SLP115 T11441217 410171144
Pressure 29.87 in
Visibility 10.0 miles
Clouds Clear
Windchill 6 °F
Dew Point -14 °F
Humidity 38%
Rainfall 0.00 in
Snow Depth Not available.
6:40 AM 4:58 PM
Waxing Crescent, 17% visible
METAR KBGR 120453Z 31012G18KT 10SM CLR M14/M22 A2986 RMK AO2 SLP115 T11441217 410171144

10-Day Weather Forecast

Almanac

Astronomy

Feb. 12, 2016 Rise Set
Actual Time
Civil Twilight
Nautical Twilight
Astronomical Twilight
Moon
Length of Visible Light
Length of Day
Tomorrow will be .
, % of the Moon is Illuminated

Today's Extremes

State Highs State Lows

Community

WunderPhotos

Upload Photos

1,892,265 photos uploaded!

WunderBlog® & News

Nearby

Air Quality

  Air Quality AQ Index Pollutant
Not available.

Snow Depth

Station Depth Elevation

Earthquake Activity

City Distance Mag. Time & Date
Minimum magnitude displayed is 2.5.

Coastal Water Temperatures

Place Temperature

Stations

Nearby Weather Stations

Station Location Temp. Windchill Dew Point Humidity Wind Precip. Elev Updated Type
                   

Watches & Warnings

Winter Storm Watch
Issued: 10:40 PM EST Feb. 11, 2016 – National Weather Service

... Winter Storm Watch remains in effect from late Friday night
through late Saturday night...

* locations... Hancock and southern Penobscot County.

* Hazard types... snow and blowing snow.

* Accumulations... possible snow accumulation of 6 to 14 inches.
Totals will vary significantly over short distances.

* Timing... late Friday night to Saturday night.

* Impacts... moderate impact. Locally heavy snowfall and areas of
blowing snow will result in difficult driving conditions.

* Winds... northeast 10 to 20 mph with gusts up to 35 mph.

* Temperatures... 5 to 20 above.

* Visibilities... one half mile or less at times.

Precautionary/preparedness actions...

A Winter Storm Watch means there is a potential for significant
snow... sleet... or ice accumulations that may impact travel.
Continue to monitor the latest forecasts.



Norcross